Navy Sup Dpt, Pennsylvania
Current Conditions -  °F | °C
As of 4:56 AM on Saturday 22 Nov 2014 (Local Time) from KCXY Reporting Station
Clear Clear  
Wind Chill: 17°   Ceiling: Unl
Heat Index: 17°   Visibility: 10mi
Dew Point: 11°   Wind: 0mph
Humidity: 77%   Direction: NA
Pressure: 30.5"   Gusts: NA
Location:  40.208°N, 77.0098°W
Report Text: KCXY 220956Z AUTO 00000KT 10SM CLR M08/M12 A3050 RMK AO2 SLP334 T10831117
Loading
Personal Weather Stations






























Interactive Weather Map New forecast layout! Learn more

10-Day Weather Forecast

Advertisements
Track Severe Weather on mobile